sensor_id;sensor_type;location;lat;lon;timestamp;P1;durP1;ratioP1;P2;durP2;ratioP2
43070;SDS011;36278;47.952;21.714;2023-12-20T00:00:53;136.67;;;36.47;;
43070;SDS011;36278;47.952;21.714;2023-12-20T00:03:19;133.90;;;35.73;;
43070;SDS011;36278;47.952;21.714;2023-12-20T00:05:45;105.00;;;35.00;;
43070;SDS011;36278;47.952;21.714;2023-12-20T00:08:11;81.50;;;33.03;;
43070;SDS011;36278;47.952;21.714;2023-12-20T00:10:36;84.27;;;32.30;;
43070;SDS011;36278;47.952;21.714;2023-12-20T00:13:02;90.20;;;32.40;;
43070;SDS011;36278;47.952;21.714;2023-12-20T00:15:27;88.10;;;33.23;;
43070;SDS011;36278;47.952;21.714;2023-12-20T00:17:53;96.60;;;32.60;;
43070;SDS011;36278;47.952;21.714;2023-12-20T00:20:18;146.23;;;36.73;;
43070;SDS011;36278;47.952;21.714;2023-12-20T00:22:44;136.23;;;34.27;;
43070;SDS011;36278;47.952;21.714;2023-12-20T00:25:09;117.63;;;35.33;;
43070;SDS011;36278;47.952;21.714;2023-12-20T00:27:35;120.07;;;37.43;;
43070;SDS011;36278;47.952;21.714;2023-12-20T00:30:00;152.07;;;35.53;;
43070;SDS011;36278;47.952;21.714;2023-12-20T00:32:25;153.40;;;38.53;;
43070;SDS011;36278;47.952;21.714;2023-12-20T00:34:51;125.37;;;34.10;;
43070;SDS011;36278;47.952;21.714;2023-12-20T00:37:16;153.63;;;36.23;;
43070;SDS011;36278;47.952;21.714;2023-12-20T00:39:42;163.17;;;37.53;;
43070;SDS011;36278;47.952;21.714;2023-12-20T00:42:07;167.67;;;36.20;;
43070;SDS011;36278;47.952;21.714;2023-12-20T00:44:33;136.93;;;38.33;;
43070;SDS011;36278;47.952;21.714;2023-12-20T00:46:58;136.10;;;35.77;;
43070;SDS011;36278;47.952;21.714;2023-12-20T00:49:24;107.33;;;33.73;;
43070;SDS011;36278;47.952;21.714;2023-12-20T00:51:49;167.53;;;36.50;;
43070;SDS011;36278;47.952;21.714;2023-12-20T00:54:16;94.13;;;36.03;;
43070;SDS011;36278;47.952;21.714;2023-12-20T00:56:41;99.10;;;34.53;;
43070;SDS011;36278;47.952;21.714;2023-12-20T00:59:07;127.00;;;34.63;;
43070;SDS011;36278;47.952;21.714;2023-12-20T01:01:32;120.17;;;35.70;;
43070;SDS011;36278;47.952;21.714;2023-12-20T01:03:58;100.00;;;35.40;;
43070;SDS011;36278;47.952;21.714;2023-12-20T01:06:24;86.33;;;34.43;;
43070;SDS011;36278;47.952;21.714;2023-12-20T01:08:50;223.10;;;37.90;;
43070;SDS011;36278;47.952;21.714;2023-12-20T01:11:15;147.33;;;34.70;;
43070;SDS011;36278;47.952;21.714;2023-12-20T01:13:41;121.70;;;35.73;;
43070;SDS011;36278;47.952;21.714;2023-12-20T01:16:08;106.40;;;32.93;;
43070;SDS011;36278;47.952;21.714;2023-12-20T01:18:35;81.30;;;35.60;;
43070;SDS011;36278;47.952;21.714;2023-12-20T01:21:01;73.73;;;31.37;;
43070;SDS011;36278;47.952;21.714;2023-12-20T01:23:28;59.70;;;30.70;;
43070;SDS011;36278;47.952;21.714;2023-12-20T01:25:53;115.37;;;33.67;;
43070;SDS011;36278;47.952;21.714;2023-12-20T01:28:19;111.20;;;33.97;;
43070;SDS011;36278;47.952;21.714;2023-12-20T01:30:44;156.70;;;34.53;;
43070;SDS011;36278;47.952;21.714;2023-12-20T01:33:10;113.43;;;36.20;;
43070;SDS011;36278;47.952;21.714;2023-12-20T01:35:35;116.37;;;34.40;;
43070;SDS011;36278;47.952;21.714;2023-12-20T01:38:01;128.07;;;33.20;;
43070;SDS011;36278;47.952;21.714;2023-12-20T01:40:26;112.33;;;33.20;;
43070;SDS011;36278;47.952;21.714;2023-12-20T01:43:02;92.27;;;34.97;;
43070;SDS011;36278;47.952;21.714;2023-12-20T01:45:31;92.87;;;32.60;;
43070;SDS011;36278;47.952;21.714;2023-12-20T01:47:57;113.73;;;32.60;;
43070;SDS011;36278;47.952;21.714;2023-12-20T01:50:24;142.37;;;34.67;;
43070;SDS011;36278;47.952;21.714;2023-12-20T01:52:50;130.53;;;34.40;;
43070;SDS011;36278;47.952;21.714;2023-12-20T01:55:18;133.97;;;33.03;;
43070;SDS011;36278;47.952;21.714;2023-12-20T01:57:44;103.17;;;35.80;;
43070;SDS011;36278;47.952;21.714;2023-12-20T02:00:12;115.00;;;34.23;;
43070;SDS011;36278;47.952;21.714;2023-12-20T02:02:40;108.33;;;34.33;;
43070;SDS011;36278;47.952;21.714;2023-12-20T02:05:10;139.20;;;35.47;;
43070;SDS011;36278;47.952;21.714;2023-12-20T02:07:36;131.50;;;33.93;;
43070;SDS011;36278;47.952;21.714;2023-12-20T02:10:02;100.00;;;35.80;;
43070;SDS011;36278;47.952;21.714;2023-12-20T02:12:29;136.60;;;35.00;;
43070;SDS011;36278;47.952;21.714;2023-12-20T02:14:55;118.70;;;33.60;;
43070;SDS011;36278;47.952;21.714;2023-12-20T02:17:21;117.60;;;35.07;;
43070;SDS011;36278;47.952;21.714;2023-12-20T02:19:47;106.00;;;34.87;;
43070;SDS011;36278;47.952;21.714;2023-12-20T02:22:13;82.73;;;34.53;;
43070;SDS011;36278;47.952;21.714;2023-12-20T02:24:38;81.77;;;32.40;;
43070;SDS011;36278;47.952;21.714;2023-12-20T02:27:07;92.93;;;32.37;;
43070;SDS011;36278;47.952;21.714;2023-12-20T02:29:34;67.83;;;32.70;;
43070;SDS011;36278;47.952;21.714;2023-12-20T02:32:00;62.77;;;32.60;;
43070;SDS011;36278;47.952;21.714;2023-12-20T02:34:25;76.20;;;34.17;;
43070;SDS011;36278;47.952;21.714;2023-12-20T02:36:51;97.13;;;33.43;;
43070;SDS011;36278;47.952;21.714;2023-12-20T02:39:18;130.10;;;32.73;;
43070;SDS011;36278;47.952;21.714;2023-12-20T02:41:44;114.80;;;33.03;;
43070;SDS011;36278;47.952;21.714;2023-12-20T02:44:09;153.43;;;32.00;;
43070;SDS011;36278;47.952;21.714;2023-12-20T02:46:35;110.43;;;33.47;;
43070;SDS011;36278;47.952;21.714;2023-12-20T02:49:01;175.37;;;33.43;;
43070;SDS011;36278;47.952;21.714;2023-12-20T02:51:26;113.67;;;36.33;;
43070;SDS011;36278;47.952;21.714;2023-12-20T02:53:52;142.17;;;37.40;;
43070;SDS011;36278;47.952;21.714;2023-12-20T02:56:17;119.93;;;38.03;;
43070;SDS011;36278;47.952;21.714;2023-12-20T02:58:42;136.13;;;36.13;;
43070;SDS011;36278;47.952;21.714;2023-12-20T03:01:08;162.37;;;36.23;;
43070;SDS011;36278;47.952;21.714;2023-12-20T03:03:33;132.10;;;34.93;;
43070;SDS011;36278;47.952;21.714;2023-12-20T03:05:59;116.47;;;37.33;;
43070;SDS011;36278;47.952;21.714;2023-12-20T03:08:25;128.83;;;37.47;;
43070;SDS011;36278;47.952;21.714;2023-12-20T03:10:50;152.73;;;36.37;;
43070;SDS011;36278;47.952;21.714;2023-12-20T03:13:16;102.27;;;37.83;;
43070;SDS011;36278;47.952;21.714;2023-12-20T03:15:41;160.90;;;34.43;;
43070;SDS011;36278;47.952;21.714;2023-12-20T03:18:07;151.77;;;38.10;;
43070;SDS011;36278;47.952;21.714;2023-12-20T03:20:33;165.20;;;36.20;;
43070;SDS011;36278;47.952;21.714;2023-12-20T03:23:02;147.83;;;35.93;;
43070;SDS011;36278;47.952;21.714;2023-12-20T03:25:28;95.87;;;37.77;;
43070;SDS011;36278;47.952;21.714;2023-12-20T03:27:53;94.50;;;35.80;;
43070;SDS011;36278;47.952;21.714;2023-12-20T03:30:19;116.23;;;36.60;;
43070;SDS011;36278;47.952;21.714;2023-12-20T03:32:45;91.23;;;38.00;;
43070;SDS011;36278;47.952;21.714;2023-12-20T03:35:10;114.73;;;36.50;;
43070;SDS011;36278;47.952;21.714;2023-12-20T03:37:36;96.33;;;33.47;;
43070;SDS011;36278;47.952;21.714;2023-12-20T03:40:02;115.37;;;33.13;;
43070;SDS011;36278;47.952;21.714;2023-12-20T03:42:28;193.20;;;36.50;;
43070;SDS011;36278;47.952;21.714;2023-12-20T03:44:53;140.80;;;33.90;;
43070;SDS011;36278;47.952;21.714;2023-12-20T03:47:19;154.50;;;35.60;;
43070;SDS011;36278;47.952;21.714;2023-12-20T03:49:44;196.27;;;35.77;;
43070;SDS011;36278;47.952;21.714;2023-12-20T03:52:10;148.47;;;33.60;;
43070;SDS011;36278;47.952;21.714;2023-12-20T03:54:35;140.67;;;36.53;;
43070;SDS011;36278;47.952;21.714;2023-12-20T03:57:01;156.27;;;37.37;;
43070;SDS011;36278;47.952;21.714;2023-12-20T03:59:27;131.27;;;34.83;;
43070;SDS011;36278;47.952;21.714;2023-12-20T04:01:52;120.77;;;33.73;;
43070;SDS011;36278;47.952;21.714;2023-12-20T04:04:18;101.07;;;34.30;;
43070;SDS011;36278;47.952;21.714;2023-12-20T04:06:44;114.03;;;36.63;;
43070;SDS011;36278;47.952;21.714;2023-12-20T04:09:09;108.63;;;35.40;;
43070;SDS011;36278;47.952;21.714;2023-12-20T04:11:36;93.57;;;36.30;;
43070;SDS011;36278;47.952;21.714;2023-12-20T04:14:02;101.23;;;38.30;;
43070;SDS011;36278;47.952;21.714;2023-12-20T04:16:27;102.23;;;35.93;;
43070;SDS011;36278;47.952;21.714;2023-12-20T04:18:53;76.23;;;34.37;;
43070;SDS011;36278;47.952;21.714;2023-12-20T04:21:18;119.93;;;34.93;;
43070;SDS011;36278;47.952;21.714;2023-12-20T04:23:44;81.30;;;34.37;;
43070;SDS011;36278;47.952;21.714;2023-12-20T04:26:09;85.43;;;37.53;;
43070;SDS011;36278;47.952;21.714;2023-12-20T04:28:35;84.77;;;34.53;;
43070;SDS011;36278;47.952;21.714;2023-12-20T04:31:00;92.47;;;35.43;;
43070;SDS011;36278;47.952;21.714;2023-12-20T04:33:26;91.57;;;34.70;;
43070;SDS011;36278;47.952;21.714;2023-12-20T04:35:51;88.53;;;32.63;;
43070;SDS011;36278;47.952;21.714;2023-12-20T04:38:17;76.73;;;32.33;;
43070;SDS011;36278;47.952;21.714;2023-12-20T04:40:42;101.13;;;35.27;;
43070;SDS011;36278;47.952;21.714;2023-12-20T04:43:08;82.80;;;36.00;;
43070;SDS011;36278;47.952;21.714;2023-12-20T04:45:36;107.57;;;34.17;;
43070;SDS011;36278;47.952;21.714;2023-12-20T04:48:02;84.13;;;33.17;;
43070;SDS011;36278;47.952;21.714;2023-12-20T04:50:28;94.63;;;36.00;;
43070;SDS011;36278;47.952;21.714;2023-12-20T04:52:53;86.27;;;32.83;;
43070;SDS011;36278;47.952;21.714;2023-12-20T04:55:19;91.00;;;35.17;;
43070;SDS011;36278;47.952;21.714;2023-12-20T04:57:45;100.63;;;36.10;;
43070;SDS011;36278;47.952;21.714;2023-12-20T05:00:11;97.73;;;36.57;;
43070;SDS011;36278;47.952;21.714;2023-12-20T05:02:37;107.60;;;37.40;;
43070;SDS011;36278;47.952;21.714;2023-12-20T05:05:04;88.43;;;36.20;;
43070;SDS011;36278;47.952;21.714;2023-12-20T05:07:30;88.77;;;37.33;;
43070;SDS011;36278;47.952;21.714;2023-12-20T05:09:55;86.60;;;40.63;;
43070;SDS011;36278;47.952;21.714;2023-12-20T05:12:21;111.57;;;42.87;;
43070;SDS011;36278;47.952;21.714;2023-12-20T05:14:46;104.50;;;41.07;;
43070;SDS011;36278;47.952;21.714;2023-12-20T05:17:12;106.80;;;41.57;;
43070;SDS011;36278;47.952;21.714;2023-12-20T05:19:37;140.93;;;41.80;;
43070;SDS011;36278;47.952;21.714;2023-12-20T05:22:03;127.60;;;40.60;;
43070;SDS011;36278;47.952;21.714;2023-12-20T05:24:28;109.83;;;40.37;;
43070;SDS011;36278;47.952;21.714;2023-12-20T05:26:54;110.83;;;39.80;;
43070;SDS011;36278;47.952;21.714;2023-12-20T05:29:20;100.47;;;39.83;;
43070;SDS011;36278;47.952;21.714;2023-12-20T05:31:45;123.43;;;39.43;;
43070;SDS011;36278;47.952;21.714;2023-12-20T05:34:11;132.10;;;40.87;;
43070;SDS011;36278;47.952;21.714;2023-12-20T05:36:37;135.00;;;38.57;;
43070;SDS011;36278;47.952;21.714;2023-12-20T05:39:04;140.90;;;39.17;;
43070;SDS011;36278;47.952;21.714;2023-12-20T05:41:33;151.47;;;39.63;;
43070;SDS011;36278;47.952;21.714;2023-12-20T05:43:58;136.57;;;40.37;;
43070;SDS011;36278;47.952;21.714;2023-12-20T05:46:24;140.67;;;42.37;;
43070;SDS011;36278;47.952;21.714;2023-12-20T05:48:50;218.50;;;42.20;;
43070;SDS011;36278;47.952;21.714;2023-12-20T05:51:17;239.27;;;40.50;;
43070;SDS011;36278;47.952;21.714;2023-12-20T05:53:43;216.03;;;39.63;;
43070;SDS011;36278;47.952;21.714;2023-12-20T05:56:09;171.97;;;40.27;;
43070;SDS011;36278;47.952;21.714;2023-12-20T05:58:35;156.27;;;46.77;;
43070;SDS011;36278;47.952;21.714;2023-12-20T06:01:03;129.37;;;45.23;;
43070;SDS011;36278;47.952;21.714;2023-12-20T06:03:30;124.43;;;45.70;;
43070;SDS011;36278;47.952;21.714;2023-12-20T06:05:55;168.30;;;46.53;;
43070;SDS011;36278;47.952;21.714;2023-12-20T06:08:21;219.83;;;45.53;;
43070;SDS011;36278;47.952;21.714;2023-12-20T06:10:46;142.63;;;41.63;;
43070;SDS011;36278;47.952;21.714;2023-12-20T06:13:12;161.73;;;45.10;;
43070;SDS011;36278;47.952;21.714;2023-12-20T06:15:39;110.43;;;44.67;;
43070;SDS011;36278;47.952;21.714;2023-12-20T06:18:08;137.90;;;45.57;;
43070;SDS011;36278;47.952;21.714;2023-12-20T06:20:33;183.23;;;49.00;;
43070;SDS011;36278;47.952;21.714;2023-12-20T06:22:59;224.10;;;44.47;;
43070;SDS011;36278;47.952;21.714;2023-12-20T06:25:24;157.20;;;42.77;;
43070;SDS011;36278;47.952;21.714;2023-12-20T06:27:50;165.77;;;43.57;;
43070;SDS011;36278;47.952;21.714;2023-12-20T06:30:16;138.57;;;43.50;;
43070;SDS011;36278;47.952;21.714;2023-12-20T06:32:41;209.30;;;46.10;;
43070;SDS011;36278;47.952;21.714;2023-12-20T06:35:08;141.30;;;44.57;;
43070;SDS011;36278;47.952;21.714;2023-12-20T06:37:34;117.80;;;43.63;;
43070;SDS011;36278;47.952;21.714;2023-12-20T06:40:00;110.00;;;43.50;;
43070;SDS011;36278;47.952;21.714;2023-12-20T06:42:26;130.00;;;42.00;;
43070;SDS011;36278;47.952;21.714;2023-12-20T06:44:51;88.70;;;42.67;;
43070;SDS011;36278;47.952;21.714;2023-12-20T06:47:17;100.73;;;36.83;;
43070;SDS011;36278;47.952;21.714;2023-12-20T06:49:42;90.27;;;40.97;;
43070;SDS011;36278;47.952;21.714;2023-12-20T06:52:08;74.60;;;41.07;;
43070;SDS011;36278;47.952;21.714;2023-12-20T06:54:34;83.80;;;40.87;;
43070;SDS011;36278;47.952;21.714;2023-12-20T06:56:59;105.90;;;40.13;;
43070;SDS011;36278;47.952;21.714;2023-12-20T06:59:25;112.97;;;40.83;;
43070;SDS011;36278;47.952;21.714;2023-12-20T07:01:51;102.60;;;41.80;;
43070;SDS011;36278;47.952;21.714;2023-12-20T07:04:17;80.27;;;41.17;;
43070;SDS011;36278;47.952;21.714;2023-12-20T07:06:47;82.03;;;41.37;;
43070;SDS011;36278;47.952;21.714;2023-12-20T07:09:13;67.67;;;38.10;;
43070;SDS011;36278;47.952;21.714;2023-12-20T07:11:39;57.07;;;35.73;;
43070;SDS011;36278;47.952;21.714;2023-12-20T07:14:05;59.80;;;37.30;;
43070;SDS011;36278;47.952;21.714;2023-12-20T07:16:30;55.73;;;35.13;;
43070;SDS011;36278;47.952;21.714;2023-12-20T07:18:56;55.93;;;36.17;;
43070;SDS011;36278;47.952;21.714;2023-12-20T07:21:22;60.33;;;35.53;;
43070;SDS011;36278;47.952;21.714;2023-12-20T07:23:47;62.07;;;37.53;;
43070;SDS011;36278;47.952;21.714;2023-12-20T07:26:13;61.97;;;37.43;;
43070;SDS011;36278;47.952;21.714;2023-12-20T07:28:39;64.83;;;37.67;;
43070;SDS011;36278;47.952;21.714;2023-12-20T07:31:05;57.87;;;36.17;;
43070;SDS011;36278;47.952;21.714;2023-12-20T07:33:31;59.57;;;36.60;;
43070;SDS011;36278;47.952;21.714;2023-12-20T07:35:56;62.80;;;37.93;;
43070;SDS011;36278;47.952;21.714;2023-12-20T07:38:22;59.53;;;37.80;;
43070;SDS011;36278;47.952;21.714;2023-12-20T07:40:47;61.70;;;37.97;;
43070;SDS011;36278;47.952;21.714;2023-12-20T07:43:13;62.10;;;36.63;;
43070;SDS011;36278;47.952;21.714;2023-12-20T07:45:38;62.13;;;37.30;;
43070;SDS011;36278;47.952;21.714;2023-12-20T07:48:04;67.07;;;39.93;;
43070;SDS011;36278;47.952;21.714;2023-12-20T07:50:31;64.47;;;38.97;;
43070;SDS011;36278;47.952;21.714;2023-12-20T07:52:58;76.27;;;42.40;;
43070;SDS011;36278;47.952;21.714;2023-12-20T07:55:25;75.50;;;42.30;;
43070;SDS011;36278;47.952;21.714;2023-12-20T07:57:51;89.83;;;45.23;;
43070;SDS011;36278;47.952;21.714;2023-12-20T08:00:17;77.50;;;42.33;;
43070;SDS011;36278;47.952;21.714;2023-12-20T08:02:42;84.53;;;44.30;;
43070;SDS011;36278;47.952;21.714;2023-12-20T08:05:08;75.47;;;42.70;;
43070;SDS011;36278;47.952;21.714;2023-12-20T08:07:34;73.90;;;41.87;;
43070;SDS011;36278;47.952;21.714;2023-12-20T08:09:59;82.17;;;45.03;;
43070;SDS011;36278;47.952;21.714;2023-12-20T08:12:25;78.97;;;46.47;;
43070;SDS011;36278;47.952;21.714;2023-12-20T08:14:52;79.17;;;45.17;;
43070;SDS011;36278;47.952;21.714;2023-12-20T08:17:18;75.30;;;43.20;;
43070;SDS011;36278;47.952;21.714;2023-12-20T08:19:44;66.17;;;41.07;;
43070;SDS011;36278;47.952;21.714;2023-12-20T08:22:09;75.33;;;42.43;;
43070;SDS011;36278;47.952;21.714;2023-12-20T08:24:35;79.07;;;44.07;;
43070;SDS011;36278;47.952;21.714;2023-12-20T08:27:00;87.53;;;44.47;;
43070;SDS011;36278;47.952;21.714;2023-12-20T08:29:26;80.10;;;44.23;;
43070;SDS011;36278;47.952;21.714;2023-12-20T08:31:52;80.73;;;44.20;;
43070;SDS011;36278;47.952;21.714;2023-12-20T08:34:19;84.00;;;46.97;;
43070;SDS011;36278;47.952;21.714;2023-12-20T08:36:44;87.30;;;46.60;;
43070;SDS011;36278;47.952;21.714;2023-12-20T08:39:09;94.27;;;47.13;;
43070;SDS011;36278;47.952;21.714;2023-12-20T08:41:36;95.27;;;46.47;;
43070;SDS011;36278;47.952;21.714;2023-12-20T08:44:02;101.73;;;47.17;;
43070;SDS011;36278;47.952;21.714;2023-12-20T08:46:28;104.90;;;46.87;;
43070;SDS011;36278;47.952;21.714;2023-12-20T08:48:54;96.37;;;44.83;;
43070;SDS011;36278;47.952;21.714;2023-12-20T08:51:20;116.00;;;43.77;;
43070;SDS011;36278;47.952;21.714;2023-12-20T08:53:48;108.93;;;45.17;;
43070;SDS011;36278;47.952;21.714;2023-12-20T08:56:14;96.43;;;45.40;;
43070;SDS011;36278;47.952;21.714;2023-12-20T08:58:40;103.50;;;43.53;;
43070;SDS011;36278;47.952;21.714;2023-12-20T09:01:05;109.17;;;46.07;;
43070;SDS011;36278;47.952;21.714;2023-12-20T09:03:31;98.03;;;43.17;;
43070;SDS011;36278;47.952;21.714;2023-12-20T09:05:56;82.03;;;42.23;;
43070;SDS011;36278;47.952;21.714;2023-12-20T09:08:22;75.60;;;41.77;;
43070;SDS011;36278;47.952;21.714;2023-12-20T09:10:47;80.30;;;40.43;;
43070;SDS011;36278;47.952;21.714;2023-12-20T09:13:13;78.50;;;39.77;;
43070;SDS011;36278;47.952;21.714;2023-12-20T09:15:38;89.87;;;39.53;;
43070;SDS011;36278;47.952;21.714;2023-12-20T09:18:04;83.20;;;37.33;;
43070;SDS011;36278;47.952;21.714;2023-12-20T09:20:29;76.47;;;38.30;;
43070;SDS011;36278;47.952;21.714;2023-12-20T09:22:55;93.50;;;42.70;;
43070;SDS011;36278;47.952;21.714;2023-12-20T09:25:21;82.67;;;41.63;;
43070;SDS011;36278;47.952;21.714;2023-12-20T09:27:48;118.30;;;41.47;;
43070;SDS011;36278;47.952;21.714;2023-12-20T09:30:14;98.93;;;42.20;;
43070;SDS011;36278;47.952;21.714;2023-12-20T09:32:39;84.03;;;39.37;;
43070;SDS011;36278;47.952;21.714;2023-12-20T09:35:05;90.63;;;39.67;;
43070;SDS011;36278;47.952;21.714;2023-12-20T09:37:31;81.60;;;40.17;;
43070;SDS011;36278;47.952;21.714;2023-12-20T09:39:57;80.67;;;42.23;;
43070;SDS011;36278;47.952;21.714;2023-12-20T09:42:24;84.57;;;39.60;;
43070;SDS011;36278;47.952;21.714;2023-12-20T09:45:03;88.10;;;41.43;;
43070;SDS011;36278;47.952;21.714;2023-12-20T09:47:33;80.37;;;42.00;;
43070;SDS011;36278;47.952;21.714;2023-12-20T09:49:59;90.17;;;40.03;;
43070;SDS011;36278;47.952;21.714;2023-12-20T09:52:24;88.33;;;42.27;;
43070;SDS011;36278;47.952;21.714;2023-12-20T09:54:50;78.40;;;42.40;;
43070;SDS011;36278;47.952;21.714;2023-12-20T09:57:17;79.40;;;41.73;;
43070;SDS011;36278;47.952;21.714;2023-12-20T09:59:43;114.13;;;44.33;;
43070;SDS011;36278;47.952;21.714;2023-12-20T10:02:10;99.77;;;43.93;;
43070;SDS011;36278;47.952;21.714;2023-12-20T10:04:40;96.17;;;45.77;;
43070;SDS011;36278;47.952;21.714;2023-12-20T10:07:12;93.97;;;47.08;;
43070;SDS011;36278;47.952;21.714;2023-12-20T10:09:38;92.37;;;44.20;;
43070;SDS011;36278;47.952;21.714;2023-12-20T10:12:04;92.43;;;45.07;;
43070;SDS011;36278;47.952;21.714;2023-12-20T10:14:33;91.17;;;43.93;;
43070;SDS011;36278;47.952;21.714;2023-12-20T10:17:05;88.47;;;47.27;;
43070;SDS011;36278;47.952;21.714;2023-12-20T10:19:32;88.07;;;46.72;;
43070;SDS011;36278;47.952;21.714;2023-12-20T10:22:01;96.03;;;47.17;;
43070;SDS011;36278;47.952;21.714;2023-12-20T10:24:29;98.43;;;46.77;;
43070;SDS011;36278;47.952;21.714;2023-12-20T10:27:05;93.47;;;48.10;;
43070;SDS011;36278;47.952;21.714;2023-12-20T10:29:36;82.47;;;46.13;;
43070;SDS011;36278;47.952;21.714;2023-12-20T10:32:22;93.37;;;48.80;;
43070;SDS011;36278;47.952;21.714;2023-12-20T10:34:51;96.73;;;45.70;;
43070;SDS011;36278;47.952;21.714;2023-12-20T10:37:17;98.33;;;46.90;;
43070;SDS011;36278;47.952;21.714;2023-12-20T10:39:43;92.03;;;45.57;;
43070;SDS011;36278;47.952;21.714;2023-12-20T10:42:16;88.93;;;44.30;;
43070;SDS011;36278;47.952;21.714;2023-12-20T10:44:42;79.23;;;42.73;;
43070;SDS011;36278;47.952;21.714;2023-12-20T10:47:08;89.77;;;42.20;;
43070;SDS011;36278;47.952;21.714;2023-12-20T10:49:37;91.13;;;42.30;;
43070;SDS011;36278;47.952;21.714;2023-12-20T10:52:04;88.83;;;43.30;;
43070;SDS011;36278;47.952;21.714;2023-12-20T10:54:31;75.47;;;43.03;;
43070;SDS011;36278;47.952;21.714;2023-12-20T10:56:58;83.60;;;40.13;;
43070;SDS011;36278;47.952;21.714;2023-12-20T10:59:24;75.73;;;43.43;;
43070;SDS011;36278;47.952;21.714;2023-12-20T11:01:50;79.30;;;42.17;;
43070;SDS011;36278;47.952;21.714;2023-12-20T11:04:20;75.70;;;41.40;;
43070;SDS011;36278;47.952;21.714;2023-12-20T11:06:59;86.03;;;41.97;;
43070;SDS011;36278;47.952;21.714;2023-12-20T11:09:44;99.47;;;38.57;;
43070;SDS011;36278;47.952;21.714;2023-12-20T11:15:03;78.83;;;37.87;;
43070;SDS011;36278;47.952;21.714;2023-12-20T11:17:29;80.20;;;40.40;;
43070;SDS011;36278;47.952;21.714;2023-12-20T11:22:26;68.33;;;34.60;;
43070;SDS011;36278;47.952;21.714;2023-12-20T11:24:58;80.43;;;35.87;;
43070;SDS011;36278;47.952;21.714;2023-12-20T11:27:44;75.07;;;36.47;;
43070;SDS011;36278;47.952;21.714;2023-12-20T11:30:29;82.43;;;39.33;;
43070;SDS011;36278;47.952;21.714;2023-12-20T11:33:07;77.63;;;39.60;;
43070;SDS011;36278;47.952;21.714;2023-12-20T11:35:33;69.63;;;38.13;;
43070;SDS011;36278;47.952;21.714;2023-12-20T11:38:00;68.43;;;36.13;;
43070;SDS011;36278;47.952;21.714;2023-12-20T11:40:26;67.40;;;35.77;;
43070;SDS011;36278;47.952;21.714;2023-12-20T11:42:51;63.77;;;35.73;;
43070;SDS011;36278;47.952;21.714;2023-12-20T11:45:23;80.00;;;38.47;;
43070;SDS011;36278;47.952;21.714;2023-12-20T11:47:51;70.50;;;38.03;;
43070;SDS011;36278;47.952;21.714;2023-12-20T11:50:18;66.97;;;35.90;;
43070;SDS011;36278;47.952;21.714;2023-12-20T11:52:45;67.40;;;35.30;;
43070;SDS011;36278;47.952;21.714;2023-12-20T11:55:11;62.47;;;33.90;;
43070;SDS011;36278;47.952;21.714;2023-12-20T11:57:37;64.40;;;30.07;;
43070;SDS011;36278;47.952;21.714;2023-12-20T12:00:03;59.43;;;29.57;;
43070;SDS011;36278;47.952;21.714;2023-12-20T12:02:29;57.40;;;27.70;;
43070;SDS011;36278;47.952;21.714;2023-12-20T12:04:55;54.77;;;27.50;;
43070;SDS011;36278;47.952;21.714;2023-12-20T12:07:22;56.23;;;27.50;;
43070;SDS011;36278;47.952;21.714;2023-12-20T12:09:47;56.03;;;29.23;;
43070;SDS011;36278;47.952;21.714;2023-12-20T12:12:13;63.47;;;31.87;;
43070;SDS011;36278;47.952;21.714;2023-12-20T12:14:39;69.13;;;33.43;;
43070;SDS011;36278;47.952;21.714;2023-12-20T12:17:12;81.33;;;33.80;;
43070;SDS011;36278;47.952;21.714;2023-12-20T12:19:39;73.25;;;36.22;;
43070;SDS011;36278;47.952;21.714;2023-12-20T12:22:06;74.23;;;35.43;;
43070;SDS011;36278;47.952;21.714;2023-12-20T12:24:41;76.77;;;36.60;;
43070;SDS011;36278;47.952;21.714;2023-12-20T12:29:37;73.77;;;36.83;;
43070;SDS011;36278;47.952;21.714;2023-12-20T12:32:04;79.70;;;39.20;;
43070;SDS011;36278;47.952;21.714;2023-12-20T12:34:32;72.70;;;37.30;;
43070;SDS011;36278;47.952;21.714;2023-12-20T12:37:00;98.27;;;39.23;;
43070;SDS011;36278;47.952;21.714;2023-12-20T12:39:26;121.70;;;68.07;;
43070;SDS011;36278;47.952;21.714;2023-12-20T12:41:52;92.33;;;40.93;;
43070;SDS011;36278;47.952;21.714;2023-12-20T12:44:19;87.57;;;39.70;;
43070;SDS011;36278;47.952;21.714;2023-12-20T12:46:46;84.97;;;43.40;;
43070;SDS011;36278;47.952;21.714;2023-12-20T12:49:12;83.73;;;39.17;;
43070;SDS011;36278;47.952;21.714;2023-12-20T12:51:41;79.93;;;39.00;;
43070;SDS011;36278;47.952;21.714;2023-12-20T12:54:08;78.57;;;38.27;;
43070;SDS011;36278;47.952;21.714;2023-12-20T12:56:35;79.97;;;42.80;;
43070;SDS011;36278;47.952;21.714;2023-12-20T12:59:01;80.97;;;39.03;;
43070;SDS011;36278;47.952;21.714;2023-12-20T13:01:27;82.47;;;43.60;;
43070;SDS011;36278;47.952;21.714;2023-12-20T13:03:53;79.20;;;38.67;;
43070;SDS011;36278;47.952;21.714;2023-12-20T13:06:19;68.37;;;36.73;;
43070;SDS011;36278;47.952;21.714;2023-12-20T13:08:45;70.73;;;38.30;;
43070;SDS011;36278;47.952;21.714;2023-12-20T13:11:11;69.97;;;36.57;;
43070;SDS011;36278;47.952;21.714;2023-12-20T13:13:37;70.00;;;38.53;;
43070;SDS011;36278;47.952;21.714;2023-12-20T13:16:02;72.83;;;37.10;;
43070;SDS011;36278;47.952;21.714;2023-12-20T13:18:28;80.40;;;35.20;;
43070;SDS011;36278;47.952;21.714;2023-12-20T13:20:54;70.77;;;36.33;;
43070;SDS011;36278;47.952;21.714;2023-12-20T13:23:19;72.37;;;39.53;;
43070;SDS011;36278;47.952;21.714;2023-12-20T13:25:44;67.60;;;34.27;;
43070;SDS011;36278;47.952;21.714;2023-12-20T13:28:13;63.87;;;34.37;;
43070;SDS011;36278;47.952;21.714;2023-12-20T13:30:39;57.60;;;32.27;;
43070;SDS011;36278;47.952;21.714;2023-12-20T13:33:04;64.07;;;35.23;;
43070;SDS011;36278;47.952;21.714;2023-12-20T13:35:31;57.60;;;34.73;;
43070;SDS011;36278;47.952;21.714;2023-12-20T13:37:57;58.83;;;33.53;;
43070;SDS011;36278;47.952;21.714;2023-12-20T13:40:23;77.53;;;37.07;;
43070;SDS011;36278;47.952;21.714;2023-12-20T13:42:49;86.07;;;38.83;;
43070;SDS011;36278;47.952;21.714;2023-12-20T13:45:14;128.60;;;36.10;;
43070;SDS011;36278;47.952;21.714;2023-12-20T13:47:41;91.30;;;37.33;;
43070;SDS011;36278;47.952;21.714;2023-12-20T13:50:06;81.20;;;35.90;;
43070;SDS011;36278;47.952;21.714;2023-12-20T13:52:32;79.40;;;33.47;;
43070;SDS011;36278;47.952;21.714;2023-12-20T13:54:58;64.37;;;32.50;;
43070;SDS011;36278;47.952;21.714;2023-12-20T13:57:23;68.60;;;31.90;;
43070;SDS011;36278;47.952;21.714;2023-12-20T13:59:49;57.00;;;31.97;;
43070;SDS011;36278;47.952;21.714;2023-12-20T14:02:14;74.87;;;30.27;;
43070;SDS011;36278;47.952;21.714;2023-12-20T14:04:41;53.73;;;30.67;;
43070;SDS011;36278;47.952;21.714;2023-12-20T14:07:07;60.77;;;32.97;;